Historyczne dane pomiarowe

Dodano dane terminowe – wersja testowa.

Dane z okresu 1951-2019

Wersja bazy: 1.34 [2019-03-16, lista zmian], aktualizacja planowana na 2019-04-15

Dane meteo z obszaru Polski uzyskane na podstawie danych udostępnionych przez Instytut Meteorologii i Gospodarki Wodnej – Państwowy Instytut Badawczy.

 

Wybierz Datę:    

       

TemperaturaWilgotnośćWiatrCiśnienieOpadyŚniegCzas trwania zjawisk
 Stacja t tx tn tng RH VA  wxwx mslp ppp RRR   cm mm wxwxwxwxwxwxwx
1987-08-14 15.1 19.4 12.0 8.8 94.8- 7.7 3.0---- 2.0------------
1987-08-13 13.4 20.2 4.4 0.5 72.3- 3.7 2.3---- 1.4------------
1987-08-12 12.2 18.4 5.2 0.4 80.3- 3.0 2.0---- 0.0------------
1987-08-11 13.5 17.0 8.0 6.0 79.5- 3.7 4.7---- 0.0------------
1987-08-10 12.6 15.9 9.3 6.5 91.8- 6.7 2.0---- 5.6------------
1987-08-09 14.2 18.4 7.4 4.3 83.8- 7.3 2.0---- 0.1------------
1987-08-08 12.8 18.5 7.0 4.0 77.8- 4.3 3.3---- 0.0------------
1987-08-07 12.5 18.0 6.2 1.0 73.8- 3.3 4.3---- 0.0------------
1987-08-06 12.7 14.8 11.4 10.6 85.5- 7.0 4.7---- 0.4------------
1987-08-05 12.5 15.5 10.0 8.2 88.0- 7.0 6.0---- 3.4------------
1987-08-04 12.6 16.3 11.0 8.6 86.5- 5.7 4.0---- 4.0------------
1987-08-03 13.4 17.1 9.5 7.0 81.5- 7.0 4.3---- 4.4------------
1987-08-02 13.5 17.8 11.0 8.0 77.8- 6.0 5.3---- 3.6------------
1987-08-01 16.1 19.2 14.6 14.1 79.3- 6.3 6.3---- 0.1------------
1987-07-31 14.7 18.0 12.5 11.1 84.8- 7.3 4.7---- 1.1------------
1987-07-30 15.9 21.5 10.7 8.0 85.8- 7.0 3.0---- 8.8------------
1987-07-29 13.2 17.5 10.5 8.0 81.3- 8.0 3.0---- 0.0------------
1987-07-28 13.2 17.5 11.0 8.8 87.5- 7.7 4.3---- 1.3------------
1987-07-27 12.2 15.0 9.5 8.2 87.0- 7.7 6.0---- 1.6------------
1987-07-26 12.1 17.6 9.4 7.6 78.0- 5.7 6.3---- 1.0------------
1987-07-25 15.2 19.0 11.8 13.2 75.3- 4.0 5.0---- 0.7------------
1987-07-24 17.6 22.0 12.7 10.5 82.0- 6.0 4.0---- 1.5------------
1987-07-23 17.3 21.2 13.4 13.2 91.0- 6.3 1.7---- 1.0------------
1987-07-22 18.0 21.5 15.5 15.3 86.8- 5.7 2.3---- 0.2------------
1987-07-21 18.3 22.4 14.2 17.1 83.3- 6.3 1.7---- 3.0------------
1987-07-20 18.6 23.1 15.4 15.0 78.3- 4.3 2.0---- 0.1------------
1987-07-19 17.8 21.2 15.2 15.7 86.5- 5.3 3.0---- 10.9------------
1987-07-18 18.0 24.2 16.6 16.7 92.8- 8.0 2.0---- 28.0------------
1987-07-17 21.7 27.8 17.6 15.0 61.5- 5.7 4.3---- 0.3------------
1987-07-16 20.1 25.4 14.0 13.1 62.8- 5.7 5.3---- 0.0------------
1987-07-15 18.5 23.6 9.6 5.4 62.3- 3.0 4.7---- 3.8------------
1987-07-14 14.9 20.7 7.5 3.6 78.3- 1.3 2.7---- 0.0------------
1987-07-13 15.4 18.8 12.5 8.1 68.8- 6.3 5.3---- 0.3------------
1987-07-12 16.2 19.6 15.0 11.4 87.5- 6.7 5.7---- 7.6------------
1987-07-11 14.8 18.0 11.2 5.8 90.5- 7.3 2.0---- 8.6------------
1987-07-10 14.7 17.8 9.6 7.7 71.8- 5.3 5.3---- 1.0------------
1987-07-09 16.5 20.7 12.4 7.1 70.0- 3.7 4.0---- 0.7------------
1987-07-08 19.8 26.3 14.4 9.5 74.0- 7.3 2.0---- 0.0------------
1987-07-07 21.4 28.3 11.1 5.4 58.8- 2.7 5.3---- 0.0------------
1987-07-06 18.3 26.1 5.1 0.1 57.8- 0.3 2.0---- 0.0------------
1987-07-05 15.9 23.1 6.8 2.5 65.0- 4.3 2.3---- 0.0------------
1987-07-04 16.0 20.2 10.6 6.0 69.5- 3.7 1.7---- 0.0------------
1987-07-03 16.3 22.2 6.6 1.6 67.0- 2.3 1.7---- 0.0------------
1987-07-02 16.7 20.9 11.2 7.0 73.0- 3.7 2.0---- 0.0------------
1987-07-01 20.9 27.1 18.4 16.7 79.5- 5.0 2.3---- 0.3------------
1987-06-30 25.2 31.2 19.5 15.9 74.3- 3.7 4.0---- 0.0------------
1987-06-29 20.3 26.2 12.2 8.8 80.8- 7.3 2.7---- 0.0------------
1987-06-28 16.2 20.3 11.8 11.8 76.5- 5.0 2.0---- 0.2------------
1987-06-27 15.1 19.8 10.2 6.6 70.3- 4.3 3.7---- 2.0------------
1987-06-26 14.6 20.7 7.2 3.3 74.0- 4.3 4.3---- 0.0------------
1987-06-25 11.2 16.2 4.8 1.0 82.5- 6.0 1.7---- 0.0------------
1987-06-24 13.3 16.1 10.8 8.5 82.3- 7.0 3.7---- 0.0------------
1987-06-23 13.5 17.4 8.1 4.6 81.0- 6.3 3.7---- 1.2------------
1987-06-22 13.3 16.0 11.4 10.2 80.5- 5.0 3.0---- 0.0------------
1987-06-21 16.5 21.8 12.0 7.6 81.8- 6.7 2.7---- 8.2------------
1987-06-20 16.7 22.5 9.7 5.5 63.8- 4.7 2.7---- 0.0------------
1987-06-19 12.4 17.0 9.2 9.2 73.8- 5.3 5.0---- 0.0------------
1987-06-18 10.1 12.6 6.3 3.8 85.8- 6.7 7.0---- 3.4------------
1987-06-17 11.7 15.5 9.4 7.4 74.0- 4.7 5.7---- 0.9------------
1987-06-16 10.4 12.5 8.0 8.0 93.0- 8.0 5.3---- 4.5------------
474.1 ms

 

Źródłem pochodzenia danych jest Instytut Meteorologii i Gospodarki Wodnej – Państwowy Instytut Badawczy. Dane Instytutu Meteorologii i Gospodarki Wodnej – Państwowego Instytutu Badawczego zostały przetworzone.

Dane źródłowe można odnaleźć na stronie https://dane.imgw.pl